createdAt,value
2017-10-15T00:00:05.606Z,21.92
2017-10-15T00:00:37.281Z,21.92
2017-10-15T00:01:09.196Z,21.92
2017-10-15T00:01:40.846Z,21.91
2017-10-15T00:02:12.502Z,21.91
2017-10-15T00:02:44.151Z,21.91
2017-10-15T00:03:15.807Z,21.90
2017-10-15T00:03:47.457Z,21.89
2017-10-15T00:04:19.354Z,21.88
2017-10-15T00:04:51.006Z,21.87
2017-10-15T00:05:22.655Z,21.87
2017-10-15T00:05:54.306Z,21.87
2017-10-15T00:06:25.970Z,21.87
2017-10-15T00:06:57.626Z,21.87
2017-10-15T00:07:29.514Z,21.88
2017-10-15T00:08:01.166Z,21.88
2017-10-15T00:08:32.818Z,21.87
2017-10-15T00:09:04.470Z,21.88
2017-10-15T00:09:36.126Z,21.88
2017-10-15T00:10:08.033Z,21.87
2017-10-15T00:10:39.687Z,21.85
2017-10-15T00:11:11.391Z,21.86
2017-10-15T00:11:43.263Z,21.85
2017-10-15T00:12:14.914Z,21.85
2017-10-15T00:12:46.566Z,21.86
2017-10-15T00:13:18.217Z,21.85
2017-10-15T00:13:49.866Z,21.85
2017-10-15T00:14:21.518Z,21.85
2017-10-15T00:14:53.174Z,21.84
2017-10-15T00:15:24.826Z,21.84
2017-10-15T00:15:56.672Z,21.82
2017-10-15T00:16:28.347Z,21.80
2017-10-15T00:17:00.048Z,21.81
2017-10-15T00:17:31.714Z,21.81
2017-10-15T00:18:03.488Z,21.82
2017-10-15T00:18:35.142Z,21.82
2017-10-15T00:19:06.794Z,21.81
2017-10-15T00:19:38.441Z,21.83
2017-10-15T00:20:10.094Z,21.81
2017-10-15T00:20:41.745Z,21.79
2017-10-15T00:21:13.393Z,21.79
2017-10-15T00:21:45.074Z,21.79
2017-10-15T00:22:16.757Z,21.78
2017-10-15T00:22:48.410Z,21.78
2017-10-15T00:23:20.247Z,21.77
2017-10-15T00:23:51.902Z,21.78
2017-10-15T00:24:23.590Z,21.78
2017-10-15T00:24:55.241Z,21.79
2017-10-15T00:25:26.902Z,21.78
2017-10-15T00:25:58.558Z,21.77
2017-10-15T00:26:30.210Z,21.77
2017-10-15T00:27:02.107Z,21.77
2017-10-15T00:27:33.758Z,21.76
2017-10-15T00:28:05.415Z,21.75
2017-10-15T00:28:37.233Z,21.74
2017-10-15T00:29:08.886Z,21.73
2017-10-15T00:29:40.539Z,21.73
2017-10-15T00:30:12.190Z,21.73
2017-10-15T00:30:43.838Z,21.75
2017-10-15T00:31:15.494Z,21.75
2017-10-15T00:31:47.150Z,21.76
2017-10-15T00:32:18.858Z,21.78
2017-10-15T00:32:50.510Z,21.78
2017-10-15T00:33:22.343Z,21.77
2017-10-15T00:33:53.994Z,21.77
2017-10-15T00:34:25.705Z,21.76
2017-10-15T00:34:57.361Z,21.77
2017-10-15T00:35:29.009Z,21.77
2017-10-15T00:36:00.936Z,21.76
2017-10-15T00:36:32.709Z,21.75
2017-10-15T00:37:04.357Z,21.75
2017-10-15T00:37:36.176Z,21.75
2017-10-15T00:38:07.826Z,21.74
2017-10-15T00:38:39.479Z,21.74
2017-10-15T00:39:11.134Z,21.73
2017-10-15T00:39:42.791Z,21.73
2017-10-15T00:40:14.445Z,21.72
2017-10-15T00:40:46.333Z,21.72
2017-10-15T00:41:17.982Z,21.71
2017-10-15T00:41:49.634Z,21.71
2017-10-15T00:42:21.282Z,21.70
2017-10-15T00:42:53.207Z,21.70
2017-10-15T00:43:24.859Z,21.69
2017-10-15T00:43:56.514Z,21.69
2017-10-15T00:44:28.161Z,21.69
2017-10-15T00:44:59.817Z,21.69
2017-10-15T00:45:31.466Z,21.69
2017-10-15T00:46:03.118Z,21.69
2017-10-15T00:46:35.003Z,21.69
2017-10-15T00:47:06.702Z,21.69
2017-10-15T00:47:38.490Z,21.68
2017-10-15T00:48:10.241Z,21.68
2017-10-15T00:48:41.894Z,21.68
2017-10-15T00:49:13.541Z,21.68
2017-10-15T00:49:45.190Z,21.67
2017-10-15T00:50:16.841Z,21.67
2017-10-15T00:50:48.498Z,21.65
2017-10-15T00:51:20.400Z,21.65
2017-10-15T00:51:52.050Z,21.66
2017-10-15T00:52:23.702Z,21.65
2017-10-15T00:52:55.399Z,21.65
2017-10-15T00:53:27.274Z,21.65
2017-10-15T00:53:58.930Z,21.66
2017-10-15T00:54:30.865Z,21.65
2017-10-15T00:55:02.534Z,21.64
2017-10-15T00:55:34.497Z,21.64
2017-10-15T00:56:06.146Z,21.64
2017-10-15T00:56:37.798Z,21.64
2017-10-15T00:57:09.446Z,21.64
2017-10-15T00:57:41.306Z,21.64
2017-10-15T00:58:12.974Z,21.63
2017-10-15T00:58:44.626Z,21.63
2017-10-15T00:59:16.283Z,21.63
2017-10-15T00:59:47.937Z,21.63
2017-10-15T01:00:19.848Z,21.63
2017-10-15T01:00:51.498Z,21.62
2017-10-15T01:01:23.150Z,21.63
2017-10-15T01:01:54.802Z,21.63
2017-10-15T01:02:26.446Z,21.62
2017-10-15T01:02:58.093Z,21.61
2017-10-15T01:03:29.742Z,21.62
2017-10-15T01:04:01.394Z,21.60
2017-10-15T01:04:33.046Z,21.60
2017-10-15T01:05:04.931Z,21.60
2017-10-15T01:05:36.621Z,21.60
2017-10-15T01:06:08.274Z,21.61
2017-10-15T01:06:40.062Z,21.61
2017-10-15T01:07:11.714Z,21.61
2017-10-15T01:07:43.366Z,21.62
2017-10-15T01:08:15.029Z,21.62
2017-10-15T01:08:46.678Z,21.62
2017-10-15T01:09:18.331Z,21.62
2017-10-15T01:09:50.034Z,21.62
2017-10-15T01:10:21.686Z,21.62
2017-10-15T01:10:53.341Z,21.63
2017-10-15T01:11:24.990Z,21.63
2017-10-15T01:11:56.641Z,21.62
2017-10-15T01:12:28.290Z,21.62
2017-10-15T01:12:59.942Z,21.61
2017-10-15T01:13:31.817Z,21.61
2017-10-15T01:14:03.474Z,21.59
2017-10-15T01:14:35.126Z,21.59
2017-10-15T01:15:06.813Z,21.58
2017-10-15T01:15:38.692Z,21.58
2017-10-15T01:16:10.346Z,21.58
2017-10-15T01:16:42.004Z,21.59
2017-10-15T01:17:13.654Z,21.58
2017-10-15T01:17:46.318Z,21.58
2017-10-15T01:18:17.970Z,21.57
2017-10-15T01:18:49.617Z,21.57
2017-10-15T01:19:21.266Z,21.57
2017-10-15T01:19:52.922Z,21.58
2017-10-15T01:20:24.698Z,21.58
2017-10-15T01:20:56.355Z,21.58
2017-10-15T01:21:28.006Z,21.58
2017-10-15T01:21:59.653Z,21.57
2017-10-15T01:22:31.573Z,21.56
2017-10-15T01:23:03.226Z,21.56
2017-10-15T01:23:34.874Z,21.55
2017-10-15T01:24:06.526Z,21.55
2017-10-15T01:24:38.170Z,21.55
2017-10-15T01:25:09.818Z,21.56
2017-10-15T01:25:41.470Z,21.55
2017-10-15T01:26:13.126Z,21.55
2017-10-15T01:26:44.782Z,21.56
2017-10-15T01:27:16.636Z,21.55
2017-10-15T01:27:48.296Z,21.54
2017-10-15T01:28:20.183Z,21.53
2017-10-15T01:28:51.834Z,21.54
2017-10-15T01:29:23.490Z,21.54
2017-10-15T01:29:55.170Z,21.54
2017-10-15T01:30:26.826Z,21.54
2017-10-15T01:30:58.478Z,21.54
2017-10-15T01:31:30.130Z,21.55
2017-10-15T01:32:01.778Z,21.54
2017-10-15T01:32:33.645Z,21.54
2017-10-15T01:33:05.332Z,21.54
2017-10-15T01:33:36.981Z,21.55
2017-10-15T01:34:08.635Z,21.54
2017-10-15T01:34:40.319Z,21.53
2017-10-15T01:35:12.162Z,21.54
2017-10-15T01:35:43.849Z,21.54
2017-10-15T01:36:15.499Z,21.53
2017-10-15T01:36:47.154Z,21.53
2017-10-15T01:37:18.806Z,21.53
2017-10-15T01:37:50.453Z,21.53
2017-10-15T01:38:22.102Z,21.53
2017-10-15T01:38:53.750Z,21.53
2017-10-15T01:39:25.467Z,21.52
2017-10-15T01:39:57.117Z,21.51
2017-10-15T01:40:28.766Z,21.51
2017-10-15T01:41:00.422Z,21.52
2017-10-15T01:41:32.070Z,21.52
2017-10-15T01:42:03.859Z,21.52
2017-10-15T01:42:35.510Z,21.52
2017-10-15T01:43:07.158Z,21.52
2017-10-15T01:43:38.808Z,21.51
2017-10-15T01:44:10.458Z,21.51
2017-10-15T01:44:42.375Z,21.51
2017-10-15T01:45:14.042Z,21.51
2017-10-15T01:45:45.691Z,21.50
2017-10-15T01:46:17.342Z,21.51
2017-10-15T01:46:48.990Z,21.51
2017-10-15T01:47:20.645Z,21.51
2017-10-15T01:47:52.533Z,21.50
2017-10-15T01:48:24.190Z,21.50
2017-10-15T01:48:55.842Z,21.50
2017-10-15T01:49:27.491Z,21.50
2017-10-15T01:49:59.141Z,21.50
2017-10-15T01:50:30.790Z,21.49
2017-10-15T01:51:02.446Z,21.49
2017-10-15T01:51:34.347Z,21.49
2017-10-15T01:52:06.238Z,21.49
2017-10-15T01:52:38.230Z,21.49
2017-10-15T01:53:09.882Z,21.49
2017-10-15T01:53:41.530Z,21.49
2017-10-15T01:54:13.182Z,21.51
2017-10-15T01:54:44.833Z,21.51
2017-10-15T01:55:16.482Z,21.50
2017-10-15T01:55:48.145Z,21.50
2017-10-15T01:56:19.976Z,21.51
2017-10-15T01:56:51.690Z,21.51
2017-10-15T01:57:23.341Z,21.51
2017-10-15T01:57:54.989Z,21.52
2017-10-15T01:58:26.642Z,21.51
2017-10-15T01:58:58.293Z,21.51
2017-10-15T01:59:29.943Z,21.50
2017-10-15T02:00:01.809Z,21.50
2017-10-15T02:00:33.475Z,21.50
2017-10-15T02:01:05.133Z,21.50
2017-10-15T02:01:36.782Z,21.51
2017-10-15T02:02:08.604Z,21.50
2017-10-15T02:02:40.294Z,21.50
2017-10-15T02:03:11.950Z,21.50
2017-10-15T02:03:43.634Z,21.50
2017-10-15T02:04:15.285Z,21.49
2017-10-15T02:04:46.938Z,21.48
2017-10-15T02:05:18.586Z,21.49
2017-10-15T02:05:50.238Z,21.49
2017-10-15T02:06:21.889Z,21.50
2017-10-15T02:06:53.542Z,21.50
2017-10-15T02:07:25.434Z,21.50
2017-10-15T02:07:57.122Z,21.50
2017-10-15T02:08:29.027Z,21.51
2017-10-15T02:09:00.678Z,21.51
2017-10-15T02:09:32.330Z,21.51
2017-10-15T02:10:03.978Z,21.52
2017-10-15T02:10:35.626Z,21.52
2017-10-15T02:11:07.274Z,21.51
2017-10-15T02:11:38.921Z,21.51
2017-10-15T02:12:10.570Z,21.51
2017-10-15T02:12:42.222Z,21.51
2017-10-15T02:13:14.052Z,21.51
2017-10-15T02:13:46.059Z,21.50
2017-10-15T02:14:17.742Z,21.50
2017-10-15T02:14:49.394Z,21.49
2017-10-15T02:15:21.045Z,21.50
2017-10-15T02:15:52.933Z,21.50
2017-10-15T02:16:24.585Z,21.51
2017-10-15T02:16:56.241Z,21.51
2017-10-15T02:17:27.899Z,21.52
2017-10-15T02:17:59.705Z,21.53
2017-10-15T02:18:31.359Z,21.52
2017-10-15T02:19:03.284Z,21.49
2017-10-15T02:19:35.042Z,21.51
2017-10-15T02:20:06.694Z,21.51
2017-10-15T02:20:38.346Z,21.52
2017-10-15T02:21:10.054Z,21.54
2017-10-15T02:21:41.916Z,21.59
2017-10-15T02:22:13.569Z,21.64
2017-10-15T02:22:45.222Z,21.68
2017-10-15T02:23:16.878Z,21.67
2017-10-15T02:23:48.530Z,21.64
2017-10-15T02:24:20.185Z,21.61
2017-10-15T02:24:52.076Z,21.59
2017-10-15T02:25:23.730Z,21.55
2017-10-15T02:25:55.378Z,21.54
2017-10-15T02:26:27.066Z,21.53
2017-10-15T02:26:58.922Z,21.52
2017-10-15T02:27:30.591Z,21.51
2017-10-15T02:28:02.242Z,21.50
2017-10-15T02:28:34.184Z,21.51
2017-10-15T02:29:05.839Z,21.50
2017-10-15T02:29:37.494Z,21.51
2017-10-15T02:30:09.142Z,21.51
2017-10-15T02:30:40.789Z,21.50
2017-10-15T02:31:12.450Z,21.50
2017-10-15T02:31:44.111Z,21.48
2017-10-15T02:32:15.762Z,21.49
2017-10-15T02:32:47.521Z,21.47
2017-10-15T02:33:19.179Z,21.47
2017-10-15T02:33:50.870Z,21.47
2017-10-15T02:34:22.526Z,21.47
2017-10-15T02:34:54.193Z,21.47
2017-10-15T02:35:25.842Z,21.46
2017-10-15T02:35:57.784Z,21.45
2017-10-15T02:36:29.434Z,21.45
2017-10-15T02:37:01.086Z,21.46
2017-10-15T02:37:32.739Z,21.46
2017-10-15T02:38:04.394Z,21.45
2017-10-15T02:38:36.042Z,21.45
2017-10-15T02:39:07.697Z,21.45
2017-10-15T02:39:39.584Z,21.45
2017-10-15T02:40:11.233Z,21.44
2017-10-15T02:40:43.149Z,21.44
2017-10-15T02:41:14.863Z,21.44
2017-10-15T02:41:46.658Z,21.44
2017-10-15T02:42:18.611Z,21.44
2017-10-15T02:42:50.268Z,21.44
2017-10-15T02:43:21.926Z,21.43
2017-10-15T02:43:53.598Z,21.44
2017-10-15T02:44:25.258Z,21.44
2017-10-15T02:44:56.925Z,21.42
2017-10-15T02:45:28.582Z,21.43
2017-10-15T02:46:00.234Z,21.42
2017-10-15T02:46:31.886Z,21.43
2017-10-15T02:47:03.539Z,21.43
2017-10-15T02:47:35.193Z,21.41
2017-10-15T02:48:07.075Z,21.42
2017-10-15T02:48:38.737Z,21.41
2017-10-15T02:49:10.546Z,21.41
2017-10-15T02:49:42.318Z,21.41
2017-10-15T02:50:13.970Z,21.40
2017-10-15T02:50:45.906Z,21.40
2017-10-15T02:51:17.561Z,21.40
2017-10-15T02:51:49.214Z,21.39
2017-10-15T02:52:20.866Z,21.39
2017-10-15T02:52:52.514Z,21.39
2017-10-15T02:53:24.166Z,21.39
2017-10-15T02:53:55.818Z,21.39
2017-10-15T02:54:27.708Z,21.38
2017-10-15T02:54:59.360Z,21.38
2017-10-15T02:55:31.014Z,21.38
2017-10-15T02:56:02.663Z,21.38
2017-10-15T02:56:34.583Z,21.37
2017-10-15T02:57:06.273Z,21.36
2017-10-15T02:57:37.926Z,21.36
2017-10-15T02:58:09.816Z,21.36
2017-10-15T02:58:41.474Z,21.35
2017-10-15T02:59:13.126Z,21.36
2017-10-15T02:59:44.778Z,21.35
2017-10-15T03:00:16.691Z,21.35
2017-10-15T03:00:48.350Z,21.35
2017-10-15T03:01:19.997Z,21.37
2017-10-15T03:01:51.650Z,21.36
2017-10-15T03:02:23.316Z,21.37
2017-10-15T03:02:54.974Z,21.37
2017-10-15T03:03:26.666Z,21.37
2017-10-15T03:03:58.386Z,21.37
2017-10-15T03:04:30.043Z,21.38
2017-10-15T03:05:01.694Z,21.38
2017-10-15T03:05:33.347Z,21.38
2017-10-15T03:06:05.002Z,21.39
2017-10-15T03:06:36.658Z,21.38
2017-10-15T03:07:08.342Z,21.37
2017-10-15T03:07:39.994Z,21.38
2017-10-15T03:08:11.647Z,21.38
2017-10-15T03:08:43.301Z,21.37
2017-10-15T03:09:14.950Z,21.37
2017-10-15T03:09:46.859Z,21.37
2017-10-15T03:10:18.512Z,21.37
2017-10-15T03:10:50.166Z,21.37
2017-10-15T03:11:21.818Z,21.37
2017-10-15T03:11:53.470Z,21.37
2017-10-15T03:12:25.353Z,21.37
2017-10-15T03:12:57.015Z,21.36
2017-10-15T03:13:28.666Z,21.36
2017-10-15T03:14:00.318Z,21.37
2017-10-15T03:14:32.150Z,21.37
2017-10-15T03:15:03.802Z,21.38
2017-10-15T03:15:35.457Z,21.38
2017-10-15T03:16:07.106Z,21.39
2017-10-15T03:16:38.817Z,21.37
2017-10-15T03:17:10.512Z,21.37
2017-10-15T03:17:42.409Z,21.38
2017-10-15T03:18:14.063Z,21.38
2017-10-15T03:18:45.722Z,21.37
2017-10-15T03:19:17.378Z,21.38
2017-10-15T03:19:49.284Z,21.38
2017-10-15T03:20:20.934Z,21.38
2017-10-15T03:20:52.587Z,21.37
2017-10-15T03:21:24.234Z,21.37
2017-10-15T03:21:55.882Z,21.37
2017-10-15T03:22:27.534Z,21.37
2017-10-15T03:22:59.186Z,21.36
2017-10-15T03:23:31.072Z,21.36
2017-10-15T03:24:03.034Z,21.36
2017-10-15T03:24:34.686Z,21.36
2017-10-15T03:25:06.338Z,21.35
2017-10-15T03:25:37.990Z,21.36
2017-10-15T03:26:09.637Z,21.36
2017-10-15T03:26:41.286Z,21.35
2017-10-15T03:27:13.192Z,21.36
2017-10-15T03:27:45.141Z,21.36
2017-10-15T03:28:16.834Z,21.37
2017-10-15T03:28:48.492Z,21.38
2017-10-15T03:29:20.142Z,21.37
2017-10-15T03:29:52.016Z,21.36
2017-10-15T03:30:23.666Z,21.37
2017-10-15T03:30:55.326Z,21.36
2017-10-15T03:31:26.974Z,21.35
2017-10-15T03:31:58.630Z,21.35
2017-10-15T03:32:30.342Z,21.36
2017-10-15T03:33:01.990Z,21.36
2017-10-15T03:33:33.638Z,21.37
2017-10-15T03:34:05.300Z,21.39
2017-10-15T03:34:36.963Z,21.41
2017-10-15T03:35:08.742Z,21.42
2017-10-15T03:35:40.398Z,21.42
2017-10-15T03:36:12.046Z,21.43
2017-10-15T03:36:43.694Z,21.43
2017-10-15T03:37:15.342Z,21.43
2017-10-15T03:37:47.259Z,21.43
2017-10-15T03:38:18.909Z,21.43
2017-10-15T03:38:50.558Z,21.43
2017-10-15T03:39:22.214Z,21.44
2017-10-15T03:39:53.862Z,21.43
2017-10-15T03:40:25.529Z,21.43
2017-10-15T03:40:57.418Z,21.42
2017-10-15T03:41:29.066Z,21.42
2017-10-15T03:42:00.718Z,21.42
2017-10-15T03:42:32.367Z,21.42
2017-10-15T03:43:04.025Z,21.42
2017-10-15T03:43:35.690Z,21.42
2017-10-15T03:44:07.576Z,21.43
2017-10-15T03:44:39.226Z,21.42
2017-10-15T03:45:10.879Z,21.42
2017-10-15T03:45:42.526Z,21.41
2017-10-15T03:46:14.174Z,21.42
2017-10-15T03:46:45.822Z,21.41
2017-10-15T03:47:17.474Z,21.41
2017-10-15T03:47:49.125Z,21.41
2017-10-15T03:48:20.770Z,21.40
2017-10-15T03:48:52.417Z,21.41
2017-10-15T03:49:24.065Z,21.40
2017-10-15T03:49:55.718Z,21.40
2017-10-15T03:50:27.406Z,21.40
2017-10-15T03:50:59.055Z,21.40
2017-10-15T03:51:30.706Z,21.40
2017-10-15T03:52:02.355Z,21.39
2017-10-15T03:52:34.006Z,21.40
2017-10-15T03:53:05.796Z,21.40
2017-10-15T03:53:37.446Z,21.39
2017-10-15T03:54:09.100Z,21.39
2017-10-15T03:54:40.750Z,21.40
2017-10-15T03:55:12.604Z,21.38
2017-10-15T03:55:44.257Z,21.39
2017-10-15T03:56:15.910Z,21.39
2017-10-15T03:56:47.560Z,21.38
2017-10-15T03:57:19.244Z,21.39
2017-10-15T03:57:50.898Z,21.39
2017-10-15T03:58:22.549Z,21.38
2017-10-15T03:58:54.197Z,21.38
2017-10-15T03:59:25.846Z,21.36
2017-10-15T03:59:57.494Z,21.37
2017-10-15T04:00:29.145Z,21.36
2017-10-15T04:01:00.798Z,21.36
2017-10-15T04:01:32.682Z,21.36
2017-10-15T04:02:04.330Z,21.36
2017-10-15T04:02:35.982Z,21.37
2017-10-15T04:03:07.630Z,21.36
2017-10-15T04:03:39.298Z,21.35
2017-10-15T04:04:10.954Z,21.35
2017-10-15T04:04:42.840Z,21.34
2017-10-15T04:05:14.530Z,21.34
2017-10-15T04:05:46.202Z,21.35
2017-10-15T04:06:18.072Z,21.35
2017-10-15T04:06:49.894Z,21.35
2017-10-15T04:07:21.663Z,21.35
2017-10-15T04:07:53.318Z,21.34
2017-10-15T04:08:24.969Z,21.34
2017-10-15T04:08:56.621Z,21.33
2017-10-15T04:09:28.269Z,21.33
2017-10-15T04:09:59.921Z,21.34
2017-10-15T04:10:31.809Z,21.34
2017-10-15T04:11:03.771Z,21.34
2017-10-15T04:11:35.424Z,21.33
2017-10-15T04:12:07.074Z,21.33
2017-10-15T04:12:38.722Z,21.32
2017-10-15T04:13:10.370Z,21.33
2017-10-15T04:13:42.021Z,21.32
2017-10-15T04:14:13.934Z,21.32
2017-10-15T04:14:45.601Z,21.32
2017-10-15T04:15:17.250Z,21.31
2017-10-15T04:15:49.162Z,21.32
2017-10-15T04:16:20.834Z,21.32
2017-10-15T04:16:52.490Z,21.31
2017-10-15T04:17:24.146Z,21.32
2017-10-15T04:17:56.037Z,21.31
2017-10-15T04:18:27.690Z,21.31
2017-10-15T04:18:59.346Z,21.30
2017-10-15T04:19:31.010Z,21.31
2017-10-15T04:20:02.670Z,21.31
2017-10-15T04:20:34.554Z,21.31
2017-10-15T04:21:06.408Z,21.31
2017-10-15T04:21:38.062Z,21.30
2017-10-15T04:22:09.714Z,21.30
2017-10-15T04:22:41.366Z,21.30
2017-10-15T04:23:13.030Z,21.30
2017-10-15T04:23:44.709Z,21.29
2017-10-15T04:24:16.543Z,21.30
2017-10-15T04:24:48.197Z,21.29
2017-10-15T04:25:19.854Z,21.30
2017-10-15T04:25:51.501Z,21.29
2017-10-15T04:26:23.229Z,21.29
2017-10-15T04:26:54.878Z,21.30
2017-10-15T04:27:26.547Z,21.29
2017-10-15T04:27:58.209Z,21.29
2017-10-15T04:28:29.867Z,21.31
2017-10-15T04:29:01.745Z,21.30
2017-10-15T04:29:33.400Z,21.30
2017-10-15T04:30:05.046Z,21.30
2017-10-15T04:30:36.693Z,21.29
2017-10-15T04:31:08.342Z,21.31
2017-10-15T04:31:40.263Z,21.31
2017-10-15T04:32:11.914Z,21.30
2017-10-15T04:32:43.566Z,21.29
2017-10-15T04:33:15.218Z,21.30
2017-10-15T04:33:46.871Z,21.30
2017-10-15T04:34:18.518Z,21.30
2017-10-15T04:34:50.174Z,21.29
2017-10-15T04:35:22.060Z,21.29
2017-10-15T04:35:53.714Z,21.29
2017-10-15T04:36:25.366Z,21.29
2017-10-15T04:36:57.296Z,21.29
2017-10-15T04:37:28.949Z,21.28
2017-10-15T04:38:00.602Z,21.29
2017-10-15T04:38:32.249Z,21.29
2017-10-15T04:39:03.898Z,21.29
2017-10-15T04:39:35.546Z,21.29
2017-10-15T04:40:07.202Z,21.30
2017-10-15T04:40:38.853Z,21.31
2017-10-15T04:41:10.739Z,21.31
2017-10-15T04:41:42.405Z,21.30
2017-10-15T04:42:14.058Z,21.30
2017-10-15T04:42:45.706Z,21.29
2017-10-15T04:43:17.613Z,21.29
2017-10-15T04:43:49.511Z,21.29
2017-10-15T04:44:21.170Z,21.28
2017-10-15T04:44:52.847Z,21.28
2017-10-15T04:45:24.808Z,21.29
2017-10-15T04:45:56.458Z,21.30
2017-10-15T04:46:28.110Z,21.31
2017-10-15T04:46:59.758Z,21.31
2017-10-15T04:47:31.626Z,21.30
2017-10-15T04:48:03.313Z,21.30
2017-10-15T04:48:34.961Z,21.29
2017-10-15T04:49:06.614Z,21.28
2017-10-15T04:49:38.262Z,21.28
2017-10-15T04:50:09.910Z,21.28
2017-10-15T04:50:41.558Z,21.29
2017-10-15T04:51:13.214Z,21.29
2017-10-15T04:51:44.866Z,21.28
2017-10-15T04:52:16.518Z,21.28
2017-10-15T04:52:48.210Z,21.30
2017-10-15T04:53:19.858Z,21.29
2017-10-15T04:53:51.518Z,21.28
2017-10-15T04:54:23.166Z,21.28
2017-10-15T04:54:54.818Z,21.28
2017-10-15T04:55:26.605Z,21.27
2017-10-15T04:55:58.258Z,21.27
2017-10-15T04:56:29.907Z,21.26
2017-10-15T04:57:01.554Z,21.26
2017-10-15T04:57:33.202Z,21.27
2017-10-15T04:58:05.122Z,21.27
2017-10-15T04:58:36.774Z,21.27
2017-10-15T04:59:08.426Z,21.27
2017-10-15T04:59:40.078Z,21.28
2017-10-15T05:00:11.726Z,21.28
2017-10-15T05:00:43.383Z,21.28
2017-10-15T05:01:15.037Z,21.28
2017-10-15T05:01:46.694Z,21.27
2017-10-15T05:02:18.534Z,21.26
2017-10-15T05:02:50.208Z,21.27
2017-10-15T05:03:21.902Z,21.27
2017-10-15T05:03:53.555Z,21.27
2017-10-15T05:04:25.401Z,21.26
2017-10-15T05:04:57.082Z,21.26
2017-10-15T05:05:28.734Z,21.25
2017-10-15T05:06:00.386Z,21.27
2017-10-15T05:06:32.038Z,21.25
2017-10-15T05:07:03.695Z,21.26
2017-10-15T05:07:35.350Z,21.25
2017-10-15T05:08:07.002Z,21.26
2017-10-15T05:08:38.710Z,21.26
2017-10-15T05:09:10.362Z,21.25
2017-10-15T05:09:42.013Z,21.25
2017-10-15T05:10:13.678Z,21.25
2017-10-15T05:10:45.450Z,21.25
2017-10-15T05:11:17.114Z,21.24
2017-10-15T05:11:48.761Z,21.24
2017-10-15T05:12:20.410Z,21.24
2017-10-15T05:12:52.325Z,21.24
2017-10-15T05:13:23.974Z,21.24
2017-10-15T05:13:55.674Z,21.24
2017-10-15T05:14:27.558Z,21.24
2017-10-15T05:14:59.209Z,21.23
2017-10-15T05:15:30.866Z,21.23
2017-10-15T05:16:02.522Z,21.22
2017-10-15T05:16:34.170Z,21.23
2017-10-15T05:17:05.830Z,21.24
2017-10-15T05:17:37.482Z,21.24
2017-10-15T05:18:09.336Z,21.24
2017-10-15T05:18:41.000Z,21.24
2017-10-15T05:19:12.650Z,21.23
2017-10-15T05:19:44.301Z,21.22
2017-10-15T05:20:15.958Z,21.24
2017-10-15T05:20:47.766Z,21.23
2017-10-15T05:21:19.425Z,21.24
2017-10-15T05:21:51.077Z,21.23
2017-10-15T05:22:22.726Z,21.22
2017-10-15T05:22:54.374Z,21.22
2017-10-15T05:23:26.022Z,21.22
2017-10-15T05:23:57.740Z,21.22
2017-10-15T05:24:29.394Z,21.23
2017-10-15T05:25:01.042Z,21.23
2017-10-15T05:25:32.697Z,21.22
2017-10-15T05:26:04.354Z,21.21
2017-10-15T05:26:36.237Z,21.22
2017-10-15T05:27:08.192Z,21.21
2017-10-15T05:27:39.842Z,21.21
2017-10-15T05:28:11.489Z,21.22
2017-10-15T05:28:43.137Z,21.22
2017-10-15T05:29:14.829Z,21.22
2017-10-15T05:29:46.678Z,21.22
2017-10-15T05:30:18.350Z,21.23
2017-10-15T05:30:50.007Z,21.23
2017-10-15T05:31:21.657Z,21.24
2017-10-15T05:31:53.307Z,21.24
2017-10-15T05:32:24.970Z,21.24
2017-10-15T05:32:56.617Z,21.24
2017-10-15T05:33:28.509Z,21.24
2017-10-15T05:34:00.162Z,21.24
2017-10-15T05:34:32.101Z,21.23
2017-10-15T05:35:03.750Z,21.24
2017-10-15T05:35:35.406Z,21.23
2017-10-15T05:36:07.332Z,21.23
2017-10-15T05:36:38.991Z,21.22
2017-10-15T05:37:10.648Z,21.21
2017-10-15T05:37:42.298Z,21.22
2017-10-15T05:38:13.950Z,21.22
2017-10-15T05:38:45.601Z,21.20
2017-10-15T05:39:17.492Z,21.21
2017-10-15T05:39:49.441Z,21.22
2017-10-15T05:40:21.098Z,21.23
2017-10-15T05:40:52.749Z,21.23
2017-10-15T05:41:24.404Z,21.23
2017-10-15T05:41:56.050Z,21.23
2017-10-15T05:42:27.702Z,21.24
2017-10-15T05:42:59.496Z,21.25
2017-10-15T05:43:31.146Z,21.24
2017-10-15T05:44:02.798Z,21.25
2017-10-15T05:44:34.446Z,21.25
2017-10-15T05:45:06.138Z,21.24
2017-10-15T05:45:37.809Z,21.24
2017-10-15T05:46:09.462Z,21.24
2017-10-15T05:46:41.114Z,21.24
2017-10-15T05:47:12.761Z,21.24
2017-10-15T05:47:44.409Z,21.24
2017-10-15T05:48:16.058Z,21.24
2017-10-15T05:48:47.710Z,21.24
2017-10-15T05:49:19.364Z,21.23
2017-10-15T05:49:51.268Z,21.22
2017-10-15T05:50:23.203Z,21.22
2017-10-15T05:50:55.090Z,21.23
2017-10-15T05:51:26.742Z,21.23
2017-10-15T05:51:58.393Z,21.22
2017-10-15T05:52:30.926Z,21.22
2017-10-15T05:53:02.574Z,21.21
2017-10-15T05:53:34.231Z,21.22
2017-10-15T05:54:05.878Z,21.22
2017-10-15T05:54:37.564Z,21.23
2017-10-15T05:55:09.221Z,21.23
2017-10-15T05:55:40.973Z,21.22
2017-10-15T05:56:12.622Z,21.22
2017-10-15T05:56:44.270Z,21.22
2017-10-15T05:57:16.084Z,21.21
2017-10-15T05:57:47.734Z,21.21
2017-10-15T05:58:19.393Z,21.21
2017-10-15T05:58:51.041Z,21.21
2017-10-15T05:59:22.729Z,21.21
2017-10-15T05:59:54.589Z,21.21
2017-10-15T06:00:26.439Z,21.20
2017-10-15T06:00:58.130Z,21.21
2017-10-15T06:01:29.790Z,21.20
2017-10-15T06:02:01.482Z,21.22
2017-10-15T06:02:33.138Z,21.22
2017-10-15T06:03:04.790Z,21.22
2017-10-15T06:03:36.598Z,21.21
2017-10-15T06:04:08.349Z,21.20
2017-10-15T06:04:40.007Z,21.20
2017-10-15T06:05:11.673Z,21.20
2017-10-15T06:05:43.326Z,21.18
2017-10-15T06:06:15.120Z,21.18
2017-10-15T06:06:46.817Z,21.17
2017-10-15T06:07:18.508Z,21.17
2017-10-15T06:07:50.171Z,21.17
2017-10-15T06:08:21.822Z,21.16
2017-10-15T06:08:53.481Z,21.16
2017-10-15T06:09:25.187Z,21.16
2017-10-15T06:09:56.853Z,21.16
2017-10-15T06:10:28.664Z,21.16
2017-10-15T06:11:00.314Z,21.16
2017-10-15T06:11:31.969Z,21.16
2017-10-15T06:12:03.630Z,21.16
2017-10-15T06:12:35.283Z,21.15
2017-10-15T06:13:06.934Z,21.15
2017-10-15T06:13:38.594Z,21.15
2017-10-15T06:14:10.447Z,21.16
2017-10-15T06:14:42.150Z,21.15
2017-10-15T06:15:14.005Z,21.15
2017-10-15T06:15:45.657Z,21.14
2017-10-15T06:16:17.314Z,21.13
2017-10-15T06:16:48.982Z,21.13
2017-10-15T06:17:20.630Z,21.13
2017-10-15T06:17:52.277Z,21.14
2017-10-15T06:18:23.926Z,21.14
2017-10-15T06:18:55.579Z,21.13
2017-10-15T06:19:27.230Z,21.15
2017-10-15T06:19:59.140Z,21.14
2017-10-15T06:20:30.790Z,21.14
2017-10-15T06:21:02.490Z,21.15
2017-10-15T06:21:34.373Z,21.15
2017-10-15T06:22:06.033Z,21.15
2017-10-15T06:22:37.682Z,21.14
2017-10-15T06:23:09.337Z,21.15
2017-10-15T06:23:40.985Z,21.14
2017-10-15T06:24:12.634Z,21.14
2017-10-15T06:24:44.282Z,21.14
2017-10-15T06:25:15.939Z,21.15
2017-10-15T06:25:47.816Z,21.16
2017-10-15T06:26:19.661Z,21.19
2017-10-15T06:26:51.406Z,21.20
2017-10-15T06:27:23.107Z,21.22
2017-10-15T06:27:54.998Z,21.20
2017-10-15T06:28:26.671Z,21.20
2017-10-15T06:28:58.341Z,21.18
2017-10-15T06:29:30.227Z,21.18
2017-10-15T06:30:01.902Z,21.18
2017-10-15T06:30:33.554Z,21.18
2017-10-15T06:31:05.206Z,21.17
2017-10-15T06:31:37.105Z,21.16
2017-10-15T06:32:08.757Z,21.15
2017-10-15T06:32:40.450Z,21.13
2017-10-15T06:33:12.292Z,21.12
2017-10-15T06:33:43.947Z,21.11
2017-10-15T06:34:15.813Z,21.11
2017-10-15T06:34:47.571Z,21.13
2017-10-15T06:35:19.226Z,21.13
2017-10-15T06:35:50.880Z,21.13
2017-10-15T06:36:22.801Z,21.13
2017-10-15T06:36:54.753Z,21.13
2017-10-15T06:37:26.449Z,21.13
2017-10-15T06:37:58.149Z,21.13
2017-10-15T06:38:29.802Z,21.12
2017-10-15T06:39:01.628Z,21.12
2017-10-15T06:39:33.277Z,21.12
2017-10-15T06:40:04.930Z,21.12
2017-10-15T06:40:36.578Z,21.11
2017-10-15T06:41:08.395Z,21.11
2017-10-15T06:41:40.144Z,21.11
2017-10-15T06:42:11.802Z,21.11
2017-10-15T06:42:43.454Z,21.12
2017-10-15T06:43:15.167Z,21.13
2017-10-15T06:43:47.020Z,21.12
2017-10-15T06:44:18.670Z,21.11
2017-10-15T06:44:50.614Z,21.12
2017-10-15T06:45:22.294Z,21.12
2017-10-15T06:45:53.946Z,21.13
2017-10-15T06:46:25.598Z,21.19
2017-10-15T06:46:57.451Z,21.34
2017-10-15T06:47:29.126Z,21.45
2017-10-15T06:48:00.778Z,21.48